Andersen AFB, Guam
Current Conditions -  °F | °C
As of 7:58 PM on Thursday 29 Jan 2015 (Local Time) from PGUA Reporting Station
Clear Clear  
Wind Chill: 78°   Ceiling: Unl
Heat Index: 81°   Visibility: 10mi
Dew Point: 72°   Wind: 5mph
Humidity: 80%   Direction: 50°NE
Pressure: 29.88"   Gusts: NA
Location:  13.58°N, 144.92°E
Report Text: PGUA 290958Z AUTO 05004KT 10SM CLR 26/22 A2988 RMK AO2 SLP109 T02570221 $
Loading
Personal Weather Stations






























Interactive Weather Map New forecast layout! Learn more

10-Day Weather Forecast

Advertisements
Track Severe Weather on mobile